createdAt,value
2022-11-24T00:01:12.738Z,3.15
2022-11-24T00:03:40.336Z,3.22
2022-11-24T00:06:10.937Z,2.78
2022-11-24T00:08:40.133Z,3.03
2022-11-24T00:11:10.672Z,2.58
2022-11-24T00:13:39.284Z,2.63
2022-11-24T00:16:19.359Z,2.47
2022-11-24T00:18:48.735Z,2.35
2022-11-24T00:21:17.801Z,3.03
2022-11-24T00:23:46.347Z,2.97
2022-11-24T00:26:26.036Z,2.60
2022-11-24T00:28:58.769Z,2.75
2022-11-24T00:31:32.268Z,3.35
2022-11-24T00:34:02.881Z,3.10
2022-11-24T00:36:32.930Z,2.42
2022-11-24T00:39:03.949Z,2.35
2022-11-24T00:41:32.125Z,3.05
2022-11-24T00:44:00.290Z,2.83
2022-11-24T00:46:28.379Z,2.33
2022-11-24T00:48:56.415Z,2.40
2022-11-24T00:51:27.951Z,3.38
2022-11-24T00:53:56.666Z,2.45
2022-11-24T00:56:25.562Z,2.50
2022-11-24T00:58:53.348Z,2.47
2022-11-24T01:01:25.912Z,2.00
2022-11-24T01:03:55.321Z,2.10
2022-11-24T01:06:26.013Z,1.98
2022-11-24T01:08:54.530Z,3.22
2022-11-24T01:11:52.579Z,1.83
2022-11-24T01:14:21.395Z,2.10
2022-11-24T01:16:49.020Z,2.58
2022-11-24T01:19:16.799Z,2.15
2022-11-24T01:21:44.389Z,2.22
2022-11-24T01:24:12.243Z,2.30
2022-11-24T01:26:39.829Z,2.15
2022-11-24T01:29:07.440Z,1.88
2022-11-24T01:31:36.958Z,2.00
2022-11-24T01:34:04.586Z,2.22
2022-11-24T01:36:32.200Z,2.30
2022-11-24T01:38:59.913Z,3.67
2022-11-24T01:41:27.711Z,4.85
2022-11-24T01:43:56.454Z,2.92
2022-11-24T01:46:32.484Z,3.63
2022-11-24T01:49:00.096Z,2.38
2022-11-24T01:51:30.672Z,2.38
2022-11-24T01:54:04.889Z,2.55
2022-11-24T01:56:34.777Z,3.30
2022-11-24T01:59:05.285Z,3.13
2022-11-24T02:01:33.157Z,2.20
2022-11-24T02:04:03.961Z,2.42
2022-11-24T02:06:34.757Z,3.10
2022-11-24T02:09:26.616Z,2.42
2022-11-24T02:11:54.874Z,2.35
2022-11-24T02:14:24.290Z,3.00
2022-11-24T02:16:53.099Z,2.22
2022-11-24T02:19:35.083Z,4.20
2022-11-24T02:22:03.992Z,2.55
2022-11-24T02:24:52.194Z,2.58
2022-11-24T02:27:20.214Z,2.42
2022-11-24T02:29:49.065Z,2.60
2022-11-24T02:32:17.241Z,3.00
2022-11-24T02:34:44.802Z,2.22
2022-11-24T02:37:12.293Z,2.22
2022-11-24T02:39:39.848Z,3.50
2022-11-24T02:42:12.974Z,3.08
2022-11-24T02:44:45.509Z,6.82
2022-11-24T02:47:13.393Z,2.70
2022-11-24T02:49:43.578Z,2.72
2022-11-24T02:52:11.973Z,2.40
2022-11-24T02:54:39.555Z,2.70
2022-11-24T02:57:07.186Z,3.67
2022-11-24T02:59:34.792Z,2.80
2022-11-24T03:02:02.952Z,2.90
2022-11-24T03:04:30.549Z,3.38
2022-11-24T03:06:58.373Z,2.90
2022-11-24T03:09:26.163Z,3.08
2022-11-24T03:11:53.653Z,2.60
2022-11-24T03:14:21.188Z,4.35
2022-11-24T03:16:48.723Z,3.30
2022-11-24T03:19:16.229Z,2.85
2022-11-24T03:21:43.777Z,3.50
2022-11-24T03:24:11.310Z,4.13
2022-11-24T03:26:38.882Z,3.00
2022-11-24T03:29:06.421Z,4.25
2022-11-24T03:31:34.025Z,2.92
2022-11-24T03:34:01.623Z,2.85
2022-11-24T03:36:29.169Z,5.35
2022-11-24T03:38:56.709Z,2.70
2022-11-24T03:41:24.213Z,3.50
2022-11-24T03:43:52.150Z,3.30
2022-11-24T03:46:19.705Z,3.33
2022-11-24T03:48:47.226Z,4.03
2022-11-24T03:51:14.772Z,2.72
2022-11-24T03:53:42.425Z,3.60
2022-11-24T03:56:10.075Z,3.65
2022-11-24T03:58:37.615Z,2.88
2022-11-24T04:01:05.194Z,3.13
2022-11-24T04:03:32.726Z,4.05
2022-11-24T04:06:00.252Z,3.30
2022-11-24T04:08:27.830Z,2.92
2022-11-24T04:10:55.541Z,5.82
2022-11-24T04:13:25.369Z,3.33
2022-11-24T04:15:53.112Z,2.78
2022-11-24T04:18:21.044Z,3.40
2022-11-24T04:20:51.954Z,3.00
2022-11-24T04:23:19.529Z,3.00
2022-11-24T04:25:47.169Z,4.00
2022-11-24T04:28:14.747Z,3.40
2022-11-24T04:30:44.701Z,3.85
2022-11-24T04:33:13.430Z,2.88
2022-11-24T04:35:41.097Z,3.17
2022-11-24T04:38:08.790Z,4.07
2022-11-24T04:40:36.932Z,3.58
2022-11-24T04:43:04.614Z,4.47
2022-11-24T04:45:32.133Z,3.08
2022-11-24T04:47:59.698Z,3.75
2022-11-24T04:50:27.271Z,3.22
2022-11-24T04:52:54.813Z,3.60
2022-11-24T04:55:22.476Z,2.95
2022-11-24T04:57:50.083Z,3.38
2022-11-24T05:00:18.199Z,5.85
2022-11-24T05:02:45.820Z,4.03
2022-11-24T05:05:13.386Z,2.85
2022-11-24T05:07:40.940Z,5.32
2022-11-24T05:10:27.377Z,3.45
2022-11-24T05:12:56.960Z,4.40
2022-11-24T05:15:24.460Z,3.70
2022-11-24T05:17:52.225Z,3.13
2022-11-24T05:20:20.117Z,3.95
2022-11-24T05:22:47.788Z,3.88
2022-11-24T05:25:15.702Z,3.80
2022-11-24T05:27:43.754Z,3.65
2022-11-24T05:30:11.793Z,3.85
2022-11-24T05:32:39.325Z,4.15
2022-11-24T05:35:09.677Z,3.78
2022-11-24T05:37:37.704Z,3.85
2022-11-24T05:40:06.947Z,3.85
2022-11-24T05:42:46.293Z,5.18
2022-11-24T05:45:20.621Z,4.63
2022-11-24T05:47:49.532Z,4.50
2022-11-24T05:50:19.231Z,5.32
2022-11-24T05:52:47.256Z,4.00
2022-11-24T05:55:16.088Z,4.13
2022-11-24T05:57:43.849Z,3.58
2022-11-24T06:00:12.321Z,4.43
2022-11-24T06:02:42.785Z,3.70
2022-11-24T06:05:10.621Z,4.53
2022-11-24T06:07:38.339Z,5.47
2022-11-24T06:10:06.176Z,4.85
2022-11-24T06:12:33.748Z,4.43
2022-11-24T06:15:01.561Z,4.18
2022-11-24T06:17:29.646Z,4.63
2022-11-24T06:19:57.214Z,4.53
2022-11-24T06:22:24.872Z,5.32
2022-11-24T06:24:52.368Z,3.75
2022-11-24T06:27:19.977Z,4.90
2022-11-24T06:29:47.790Z,5.72
2022-11-24T06:32:15.631Z,4.20
2022-11-24T06:34:44.396Z,4.65
2022-11-24T06:37:11.930Z,5.22
2022-11-24T06:39:39.460Z,4.75
2022-11-24T06:42:07.005Z,4.30
2022-11-24T06:44:34.755Z,5.45
2022-11-24T06:47:02.442Z,5.82
2022-11-24T06:49:29.958Z,3.90
2022-11-24T06:51:57.514Z,4.65
2022-11-24T06:54:25.002Z,5.88
2022-11-24T06:56:57.352Z,4.72
2022-11-24T06:59:26.490Z,5.43
2022-11-24T07:01:54.447Z,5.72
2022-11-24T07:04:22.056Z,5.13
2022-11-24T07:06:49.668Z,4.50
2022-11-24T07:09:17.204Z,4.88
2022-11-24T07:11:44.725Z,4.18
2022-11-24T07:14:12.760Z,4.22
2022-11-24T07:16:40.870Z,4.75
2022-11-24T07:19:10.873Z,5.18
2022-11-24T07:21:38.430Z,6.78
2022-11-24T07:24:06.373Z,4.88
2022-11-24T07:26:37.369Z,5.05
2022-11-24T07:29:05.706Z,5.55
2022-11-24T07:31:33.396Z,6.40
2022-11-24T07:34:01.185Z,4.70
2022-11-24T07:36:28.762Z,4.32
2022-11-24T07:38:56.390Z,7.45
2022-11-24T07:41:23.958Z,7.72
2022-11-24T07:43:51.967Z,5.22
2022-11-24T07:46:20.449Z,3.95
2022-11-24T07:48:48.036Z,5.15
2022-11-24T07:51:16.107Z,4.45
2022-11-24T07:53:44.987Z,5.50
2022-11-24T07:56:13.217Z,5.60
2022-11-24T07:58:40.845Z,4.53
2022-11-24T08:01:18.105Z,5.20
2022-11-24T08:04:02.194Z,5.38
2022-11-24T08:06:38.578Z,7.47
2022-11-24T08:09:08.509Z,4.90
2022-11-24T08:11:36.738Z,6.65
2022-11-24T08:14:04.269Z,4.68
2022-11-24T08:16:32.291Z,4.53
2022-11-24T08:19:00.043Z,5.18
2022-11-24T08:21:27.778Z,4.68
2022-11-24T08:23:58.779Z,5.07
2022-11-24T08:26:26.699Z,4.03
2022-11-24T08:28:57.222Z,4.57
2022-11-24T08:31:32.615Z,4.82
2022-11-24T08:34:00.891Z,6.53
2022-11-24T08:36:28.465Z,6.28
2022-11-24T08:38:57.656Z,6.63
2022-11-24T08:41:27.005Z,4.43
2022-11-24T08:43:55.030Z,5.03
2022-11-24T08:46:23.872Z,6.45
2022-11-24T08:48:53.845Z,5.90
2022-11-24T08:51:24.136Z,6.07
2022-11-24T08:53:58.760Z,6.70
2022-11-24T08:56:32.573Z,5.80
2022-11-24T08:59:00.429Z,5.97
2022-11-24T09:01:29.016Z,5.90
2022-11-24T09:03:56.998Z,5.60
2022-11-24T09:06:31.031Z,6.07
2022-11-24T09:08:59.520Z,5.60
2022-11-24T09:11:27.687Z,6.07
2022-11-24T09:13:55.803Z,5.20
2022-11-24T09:16:28.945Z,5.32
2022-11-24T09:19:04.475Z,6.07
2022-11-24T09:21:34.412Z,7.68
2022-11-24T09:24:02.143Z,6.63
2022-11-24T09:26:32.632Z,5.90
2022-11-24T09:29:01.876Z,5.55
2022-11-24T09:31:34.956Z,4.82
2022-11-24T09:34:04.836Z,4.70
2022-11-24T09:36:32.621Z,5.43
2022-11-24T09:39:00.462Z,5.57
2022-11-24T09:41:52.643Z,6.13
2022-11-24T09:44:38.061Z,4.95
2022-11-24T09:47:32.648Z,6.25
2022-11-24T09:50:15.941Z,5.60
2022-11-24T09:53:03.646Z,5.60
2022-11-24T09:55:39.172Z,5.32
2022-11-24T09:58:18.062Z,5.32
2022-11-24T10:00:48.581Z,5.13
2022-11-24T10:03:24.866Z,6.90
2022-11-24T10:05:53.359Z,6.35
2022-11-24T10:08:59.291Z,5.40
2022-11-24T10:11:38.121Z,5.90
2022-11-24T10:14:08.750Z,5.75
2022-11-24T10:17:05.431Z,5.97
2022-11-24T10:20:02.731Z,6.43
2022-11-24T10:22:52.347Z,5.22
2022-11-24T10:25:42.933Z,4.72
2022-11-24T10:28:14.626Z,5.78
2022-11-24T10:30:42.802Z,8.80
2022-11-24T10:33:13.371Z,6.03
2022-11-24T10:35:47.845Z,7.20
2022-11-24T10:38:21.266Z,6.82
2022-11-24T10:41:03.305Z,6.30
2022-11-24T10:43:30.989Z,6.93
2022-11-24T10:46:19.579Z,4.32
2022-11-24T10:49:00.198Z,5.75
2022-11-24T10:51:52.906Z,5.47
2022-11-24T10:54:23.485Z,5.75
2022-11-24T10:56:53.434Z,7.90
2022-11-24T10:59:21.034Z,6.32
2022-11-24T11:01:48.888Z,7.85
2022-11-24T11:04:40.994Z,5.43
2022-11-24T11:07:20.748Z,6.00
2022-11-24T11:09:49.022Z,5.50
2022-11-24T11:12:43.215Z,6.35
2022-11-24T11:15:21.832Z,5.50
2022-11-24T11:17:52.443Z,5.00
2022-11-24T11:20:28.017Z,5.68
2022-11-24T11:22:58.933Z,5.25
2022-11-24T11:25:30.982Z,6.32
2022-11-24T11:28:18.340Z,6.57
2022-11-24T11:31:21.312Z,4.60
2022-11-24T11:34:12.472Z,4.40
2022-11-24T11:36:48.318Z,4.28
2022-11-24T11:39:26.705Z,5.38
2022-11-24T11:42:45.239Z,4.68
2022-11-24T11:45:13.967Z,5.85
2022-11-24T11:48:15.171Z,4.45
2022-11-24T11:54:08.014Z,5.70
2022-11-24T11:56:44.302Z,5.40
2022-11-24T11:59:30.145Z,4.00
2022-11-24T12:02:54.066Z,6.05
2022-11-24T12:05:34.959Z,6.00
2022-11-24T12:08:15.983Z,4.32
2022-11-24T12:11:09.940Z,4.50
2022-11-24T12:13:48.579Z,4.97
2022-11-24T12:16:34.240Z,4.32
2022-11-24T12:19:27.408Z,4.15
2022-11-24T12:22:08.346Z,5.32
2022-11-24T12:24:45.279Z,5.77
2022-11-24T12:27:24.206Z,4.60
2022-11-24T12:30:11.805Z,5.45
2022-11-24T12:32:48.019Z,5.30
2022-11-24T12:35:44.376Z,4.15
2022-11-24T12:38:47.213Z,5.72
2022-11-24T12:41:41.772Z,5.10
2022-11-24T12:44:37.811Z,4.32
2022-11-24T12:47:27.288Z,5.60
2022-11-24T12:50:15.864Z,4.55
2022-11-24T12:53:32.841Z,4.85
2022-11-24T12:56:13.416Z,5.47
2022-11-24T12:59:00.207Z,4.43
2022-11-24T13:01:45.157Z,6.38
2022-11-24T13:04:12.842Z,5.30
2022-11-24T13:06:48.798Z,4.40
2022-11-24T13:09:17.449Z,4.90
2022-11-24T13:11:47.123Z,4.70
2022-11-24T13:14:30.548Z,5.03
2022-11-24T13:19:52.082Z,5.38
2022-11-24T13:22:25.523Z,6.28
2022-11-24T13:25:15.143Z,5.95
2022-11-24T13:27:45.516Z,6.25
2022-11-24T13:30:34.995Z,6.15
2022-11-24T13:33:16.187Z,6.55
2022-11-24T13:36:02.900Z,3.30
2022-11-24T13:38:45.670Z,1.83
2022-11-24T13:41:42.082Z,1.88
2022-11-24T13:44:15.433Z,1.95
2022-11-24T13:47:32.469Z,1.98
2022-11-24T13:50:01.930Z,2.40
2022-11-24T13:52:53.443Z,1.90
2022-11-24T13:55:40.212Z,2.25
2022-11-24T13:58:13.539Z,2.10
2022-11-24T14:01:01.912Z,1.70
2022-11-24T14:03:34.501Z,1.98
2022-11-24T14:06:03.164Z,2.00
2022-11-24T14:08:36.825Z,2.47
2022-11-24T14:11:16.529Z,2.08
2022-11-24T14:13:44.220Z,3.80
2022-11-24T14:16:24.642Z,2.00
2022-11-24T14:18:52.690Z,2.05
2022-11-24T14:21:20.280Z,1.60
2022-11-24T14:23:52.135Z,1.90
2022-11-24T14:26:22.660Z,2.40
2022-11-24T14:28:50.979Z,2.47
2022-11-24T14:31:24.775Z,3.08
2022-11-24T14:34:19.278Z,2.10
2022-11-24T14:36:47.756Z,2.17
2022-11-24T14:39:20.281Z,2.67
2022-11-24T14:42:03.521Z,2.50
2022-11-24T14:44:46.298Z,2.78
2022-11-24T14:47:17.533Z,2.45
2022-11-24T14:49:45.265Z,1.85
2022-11-24T14:52:16.129Z,3.00
2022-11-24T14:54:49.689Z,3.33
2022-11-24T14:57:26.104Z,2.90
2022-11-24T15:00:19.568Z,2.97
2022-11-24T15:02:51.966Z,2.55
2022-11-24T15:05:25.006Z,2.50
2022-11-24T15:08:02.770Z,3.33
2022-11-24T15:10:36.303Z,2.45
2022-11-24T15:13:13.837Z,3.05
2022-11-24T15:15:51.663Z,3.25
2022-11-24T15:18:37.363Z,4.63
2022-11-24T15:21:05.303Z,4.50
2022-11-24T15:23:37.081Z,4.50
2022-11-24T15:26:04.538Z,3.80
2022-11-24T15:28:33.109Z,3.38
2022-11-24T15:31:06.255Z,3.28
2022-11-24T15:33:33.904Z,4.43
2022-11-24T15:36:01.598Z,4.70
2022-11-24T15:38:29.131Z,4.07
2022-11-24T15:40:59.671Z,3.92
2022-11-24T15:43:40.182Z,3.75
2022-11-24T15:46:09.140Z,3.97
2022-11-24T15:48:36.985Z,3.03
2022-11-24T15:51:13.052Z,2.60
2022-11-24T15:53:50.057Z,2.60
2022-11-24T15:56:29.310Z,2.83
2022-11-24T15:58:57.443Z,3.33
2022-11-24T16:01:28.760Z,3.28
2022-11-24T16:03:56.383Z,3.25
2022-11-24T16:06:25.244Z,4.00
2022-11-24T16:08:54.204Z,3.50
2022-11-24T16:11:22.595Z,3.25
2022-11-24T16:13:53.283Z,3.50
2022-11-24T16:16:23.018Z,3.22
2022-11-24T16:18:50.829Z,3.97
2022-11-24T16:21:18.511Z,4.50
2022-11-24T16:23:46.584Z,3.70
2022-11-24T16:26:14.153Z,4.18
2022-11-24T16:28:42.830Z,3.78
2022-11-24T16:31:10.397Z,5.75
2022-11-24T16:33:40.755Z,5.00
2022-11-24T16:36:08.826Z,5.60
2022-11-24T16:38:36.350Z,6.65
2022-11-24T16:41:04.066Z,4.78
2022-11-24T16:43:31.775Z,4.05
2022-11-24T16:46:16.063Z,5.53
2022-11-24T16:48:45.458Z,3.13
2022-11-24T16:51:14.542Z,2.92
2022-11-24T16:53:42.782Z,2.90
2022-11-24T16:56:11.017Z,3.63
2022-11-24T16:58:40.280Z,4.38
2022-11-24T17:01:10.729Z,3.15
2022-11-24T17:03:38.694Z,3.40
2022-11-24T17:06:09.488Z,3.38
2022-11-24T17:08:39.570Z,2.87
2022-11-24T17:11:13.308Z,2.63
2022-11-24T17:13:41.618Z,2.22
2022-11-24T17:16:14.346Z,2.40
2022-11-24T17:18:42.492Z,2.38
2022-11-24T17:21:15.645Z,2.50
2022-11-24T17:23:43.645Z,2.53
2022-11-24T17:26:15.987Z,2.60
2022-11-24T17:28:44.131Z,3.30
2022-11-24T17:31:22.241Z,2.08
2022-11-24T17:33:51.395Z,3.10
2022-11-24T17:36:19.114Z,2.38
2022-11-24T17:38:46.693Z,2.45
2022-11-24T17:41:14.244Z,2.78
2022-11-24T17:43:41.881Z,2.70
2022-11-24T17:46:10.422Z,3.65
2022-11-24T17:48:37.965Z,4.15
2022-11-24T17:51:14.219Z,5.22
2022-11-24T17:53:43.294Z,4.65
2022-11-24T17:56:19.635Z,3.13
2022-11-24T17:58:47.222Z,3.65
2022-11-24T18:01:14.889Z,3.35
2022-11-24T18:03:42.711Z,3.20
2022-11-24T18:06:12.052Z,3.28
2022-11-24T18:08:42.006Z,4.10
2022-11-24T18:11:12.938Z,2.90
2022-11-24T18:13:56.736Z,3.45
2022-11-24T18:16:29.987Z,5.03
2022-11-24T18:19:08.242Z,4.28
2022-11-24T18:21:40.791Z,4.60
2022-11-24T18:24:09.954Z,6.82
2022-11-24T18:26:38.776Z,3.25
2022-11-24T18:29:06.587Z,3.50
2022-11-24T18:31:35.644Z,2.80
2022-11-24T18:34:05.702Z,2.85
2022-11-24T18:36:34.686Z,3.63
2022-11-24T18:39:05.558Z,3.67
2022-11-24T18:41:33.230Z,3.05
2022-11-24T18:44:03.094Z,3.17
2022-11-24T18:46:30.797Z,3.10
2022-11-24T18:48:59.352Z,4.82
2022-11-24T18:51:27.266Z,5.53
2022-11-24T18:53:54.935Z,5.68
2022-11-24T18:56:22.458Z,6.10
2022-11-24T18:58:53.562Z,5.82
2022-11-24T19:01:28.954Z,5.88
2022-11-24T19:03:58.845Z,6.47
2022-11-24T19:06:32.825Z,6.57
2022-11-24T19:09:03.627Z,6.85
2022-11-24T19:11:37.095Z,8.02
2022-11-24T19:14:06.362Z,7.32
2022-11-24T19:16:34.098Z,6.13
2022-11-24T19:19:02.999Z,6.90
2022-11-24T19:21:32.715Z,4.95
2022-11-24T19:24:04.839Z,5.38
2022-11-24T19:26:36.762Z,4.80
2022-11-24T19:29:05.422Z,5.95
2022-11-24T19:31:34.567Z,4.90
2022-11-24T19:34:03.595Z,3.65
2022-11-24T19:36:31.248Z,4.20
2022-11-24T19:38:59.740Z,4.47
2022-11-24T19:41:29.709Z,4.50
2022-11-24T19:43:58.643Z,6.05
2022-11-24T19:46:29.336Z,5.05
2022-11-24T19:49:00.433Z,4.95
2022-11-24T19:51:31.045Z,5.68
2022-11-24T19:53:59.626Z,4.60
2022-11-24T19:56:29.757Z,5.78
2022-11-24T19:58:57.626Z,5.97
2022-11-24T20:01:44.755Z,5.25
2022-11-24T20:04:14.974Z,6.18
2022-11-24T20:06:46.512Z,6.68
2022-11-24T20:09:16.650Z,6.93
2022-11-24T20:11:44.851Z,5.88
2022-11-24T20:14:14.457Z,7.93
2022-11-24T20:16:42.248Z,7.72
2022-11-24T20:19:12.872Z,5.18
2022-11-24T20:21:47.709Z,5.50
2022-11-24T20:24:25.039Z,5.90
2022-11-24T20:26:56.426Z,5.28
2022-11-24T20:29:24.539Z,5.10
2022-11-24T20:31:54.571Z,6.38
2022-11-24T20:34:23.424Z,5.60
2022-11-24T20:36:52.938Z,6.43
2022-11-24T20:39:27.953Z,4.85
2022-11-24T20:41:56.330Z,6.60
2022-11-24T20:44:26.587Z,5.60
2022-11-24T20:46:56.783Z,4.97
2022-11-24T20:49:25.125Z,4.97
2022-11-24T20:51:57.585Z,5.45
2022-11-24T20:54:25.388Z,4.88
2022-11-24T20:56:53.193Z,5.68
2022-11-24T20:59:23.670Z,6.20
2022-11-24T21:01:55.253Z,4.53
2022-11-24T21:04:25.412Z,5.68
2022-11-24T21:06:53.621Z,5.78
2022-11-24T21:09:21.337Z,4.93
2022-11-24T21:11:49.439Z,6.45
2022-11-24T21:14:17.089Z,5.20
2022-11-24T21:16:45.146Z,5.35
2022-11-24T21:19:15.067Z,6.43
2022-11-24T21:21:43.445Z,5.32
2022-11-24T21:24:15.784Z,4.93
2022-11-24T21:26:47.653Z,6.10
2022-11-24T21:29:17.930Z,4.93
2022-11-24T21:31:45.560Z,5.32
2022-11-24T21:34:19.070Z,5.57
2022-11-24T21:36:47.084Z,5.82
2022-11-24T21:39:15.245Z,4.93
2022-11-24T21:41:43.274Z,4.97
2022-11-24T21:44:14.223Z,4.95
2022-11-24T21:46:48.175Z,5.60
2022-11-24T21:49:20.273Z,5.78
2022-11-24T21:51:47.969Z,7.18
2022-11-24T21:54:15.526Z,5.43
2022-11-24T21:56:43.161Z,6.10
2022-11-24T21:59:10.672Z,6.45
2022-11-24T22:01:38.331Z,6.20
2022-11-24T22:04:06.035Z,5.60
2022-11-24T22:06:33.935Z,5.90
2022-11-24T22:09:01.533Z,6.45
2022-11-24T22:11:29.134Z,5.80
2022-11-24T22:13:56.707Z,5.03
2022-11-24T22:16:25.849Z,6.82
2022-11-24T22:18:53.731Z,6.05
2022-11-24T22:21:24.308Z,6.07
2022-11-24T22:23:53.029Z,5.25
2022-11-24T22:26:22.926Z,7.05
2022-11-24T22:28:50.914Z,5.85
2022-11-24T22:31:25.030Z,5.43
2022-11-24T22:33:53.682Z,5.50
2022-11-24T22:36:22.661Z,5.07
2022-11-24T22:38:58.802Z,5.13
2022-11-24T22:41:26.438Z,4.88
2022-11-24T22:43:54.016Z,4.68
2022-11-24T22:46:24.595Z,5.30
2022-11-24T22:48:53.632Z,6.32
2022-11-24T22:51:23.965Z,6.60
2022-11-24T22:53:53.760Z,4.28
2022-11-24T22:56:21.567Z,4.90
2022-11-24T22:58:49.264Z,6.55
2022-11-24T23:01:25.032Z,4.10
2022-11-24T23:03:54.592Z,3.58
2022-11-24T23:06:27.909Z,4.80
2022-11-24T23:08:57.522Z,3.80
2022-11-24T23:11:37.229Z,5.65
2022-11-24T23:14:07.686Z,3.05
2022-11-24T23:16:35.533Z,4.03
2022-11-24T23:19:03.320Z,3.92
2022-11-24T23:21:33.895Z,4.93
2022-11-24T23:24:03.577Z,4.07
2022-11-24T23:26:37.126Z,3.50
2022-11-24T23:29:05.880Z,3.45
2022-11-24T23:31:33.950Z,3.35
2022-11-24T23:34:03.532Z,3.20
2022-11-24T23:36:32.249Z,4.78
2022-11-24T23:39:08.643Z,2.63
2022-11-24T23:41:36.287Z,3.17
2022-11-24T23:44:03.974Z,3.28
2022-11-24T23:46:31.568Z,2.13
2022-11-24T23:48:59.736Z,3.30
2022-11-24T23:51:32.513Z,2.70
2022-11-24T23:54:01.232Z,3.17
2022-11-24T23:56:33.078Z,3.08
2022-11-24T23:59:02.499Z,3.55
